Time;durP1;ratioP1;P1;durP2;ratioP2;P2;SDS_P1;SDS_P2;PMS_P1;PMS_P2;Temp;Humidity;BMP_temperature;BMP_pressure;BME280_temperature;BME280_humidity;BME280_pressure;Samples;Min_cycle;Max_cycle;Signal;HPM_P1;HPM_P2
2022/03/27 00:00:24;;;;;;;18.90;10.93;;;;;;;8.24;71.85;102841.38;5020429;28;20445;-75
2022/03/27 00:02:49;;;;;;;20.20;10.40;;;;;;;8.30;72.07;102851.22;5020049;28;20202;-75
2022/03/27 00:05:14;;;;;;;20.00;10.00;;;;;;;8.12;72.55;102845.91;5020013;28;20207;-75
2022/03/27 00:07:40;;;;;;;24.20;11.20;;;;;;;8.51;71.46;102836.78;5019515;28;20221;-74
2022/03/27 00:10:06;;;;;;;17.70;12.17;;;;;;;8.56;71.21;102843.09;5020019;28;20170;-75
2022/03/27 00:12:31;;;;;;;22.67;11.67;;;;;;;8.39;71.75;102851.72;5019810;28;20167;-76
2022/03/27 00:14:57;;;;;;;22.87;11.30;;;;;;;7.93;73.18;102861.41;5020372;28;20433;-75
2022/03/27 00:17:22;;;;;;;21.10;10.63;;;;;;;8.34;72.23;102847.97;5019898;28;20167;-76
2022/03/27 00:19:49;;;;;;;23.20;11.43;;;;;;;8.19;72.90;102853.25;5019714;28;20167;-75
2022/03/27 00:22:17;;;;;;;22.43;11.20;;;;;;;8.31;71.65;102853.91;5019961;28;20163;-76
2022/03/27 00:24:42;;;;;;;21.43;11.47;;;;;;;7.90;73.29;102853.47;5019625;28;20414;-75
2022/03/27 00:27:08;;;;;;;22.23;12.00;;;;;;;7.87;73.70;102857.59;5019642;28;20456;-75
2022/03/27 00:29:33;;;;;;;20.97;11.37;;;;;;;7.99;73.57;102859.97;5019978;28;20540;-76
2022/03/27 00:31:59;;;;;;;14.37;11.50;;;;;;;8.02;73.39;102847.13;5019380;28;20448;-76
2022/03/27 00:34:25;;;;;;;19.67;11.40;;;;;;;7.88;73.87;102852.47;5019026;28;20219;-76
2022/03/27 00:36:50;;;;;;;23.30;11.63;;;;;;;7.75;73.97;102850.91;5019827;28;20435;-75
2022/03/27 00:39:16;;;;;;;19.37;11.60;;;;;;;8.13;73.60;102847.72;5019523;28;20431;-75
2022/03/27 00:41:43;;;;;;;18.33;11.67;;;;;;;7.91;74.21;102849.16;5019619;28;20205;-75
2022/03/27 00:44:09;;;;;;;20.70;12.37;;;;;;;7.96;73.98;102846.81;5019973;28;20167;-76
2022/03/27 00:46:34;;;;;;;20.23;12.60;;;;;;;7.96;73.97;102841.63;5019467;28;20738;-76
2022/03/27 00:48:59;;;;;;;22.40;12.80;;;;;;;7.85;73.74;102848.84;5019387;28;20481;-76
2022/03/27 00:51:25;;;;;;;23.70;12.90;;;;;;;7.65;74.91;102847.72;5019930;28;20178;-75
2022/03/27 00:53:50;;;;;;;23.17;12.33;;;;;;;7.96;74.20;102847.69;5019335;28;20210;-74
2022/03/27 00:56:15;;;;;;;23.47;14.37;;;;;;;7.66;74.67;102845.22;5019304;28;20225;-75
2022/03/27 00:58:41;;;;;;;15.30;12.37;;;;;;;7.53;75.41;102843.63;5019678;28;20174;-75
2022/03/27 01:01:24;;;;;;;21.40;12.97;;;;;;;7.19;76.87;102838.22;5019128;28;20175;-76
2022/03/27 01:03:53;;;;;;;19.83;13.00;;;;;;;7.41;76.16;102836.06;5019487;28;20260;-76
2022/03/27 01:06:28;;;;;;;24.03;15.43;;;;;;;7.17;76.59;102842.41;5019734;28;20457;-76
2022/03/27 01:11:38;;;;;;;27.40;16.53;;;;;;;6.99;77.94;102834.47;5018888;28;20420;-75
2022/03/27 01:14:03;;;;;;;19.27;14.60;;;;;;;7.03;77.97;102837.34;5019133;28;20690;-75
2022/03/27 01:16:33;;;;;;;24.17;15.77;;;;;;;6.86;78.38;102843.22;5019109;28;20528;-75
2022/03/27 01:19:00;;;;;;;31.03;15.80;;;;;;;6.76;79.06;102840.91;5018866;28;20202;-75
2022/03/27 01:21:25;;;;;;;23.57;15.90;;;;;;;6.98;78.65;102837.88;5019131;28;20838;-75
2022/03/27 01:23:51;;;;;;;30.93;16.30;;;;;;;6.92;78.84;102830.63;5017979;28;20426;-74
2022/03/27 01:26:18;;;;;;;27.50;16.77;;;;;;;6.99;78.50;102829.28;5017707;28;20214;-75
2022/03/27 01:28:43;;;;;;;33.50;16.80;;;;;;;6.81;79.09;102842.09;5019134;28;20178;-74
2022/03/27 01:31:08;;;;;;;36.03;16.93;;;;;;;6.95;78.73;102832.50;5019019;28;20418;-74
2022/03/27 01:33:34;;;;;;;34.20;17.80;;;;;;;6.90;79.01;102825.38;5018975;28;20611;-75
2022/03/27 01:35:59;;;;;;;25.63;16.83;;;;;;;7.10;78.96;102833.38;5019178;28;20170;-74
2022/03/27 01:38:25;;;;;;;32.00;18.03;;;;;;;7.05;78.25;102832.25;5018761;28;20175;-75
2022/03/27 01:40:51;;;;;;;35.77;16.90;;;;;;;7.05;nan;102824.47;5018597;28;20178;-74
2022/03/27 01:43:17;;;;;;;30.17;18.37;;;;;;;7.07;78.39;102834.09;5018817;28;20533;-74
2022/03/27 01:45:42;;;;;;;41.90;19.67;;;;;;;6.64;79.24;102828.13;5018350;28;20473;-73
2022/03/27 01:48:07;;;;;;;31.50;18.63;;;;;;;7.03;78.87;102831.25;5018240;28;20543;-75
2022/03/27 01:50:33;;;;;;;59.27;21.17;;;;;;;6.91;79.21;102831.44;5018534;28;20418;-74
2022/03/27 01:52:58;;;;;;;38.40;18.60;;;;;;;6.97;78.80;102833.47;5018176;28;20190;-74
2022/03/27 01:55:24;;;;;;;36.10;18.87;;;;;;;6.96;79.01;102842.09;5018083;28;20178;-74
2022/03/27 01:57:49;;;;;;;32.97;19.20;;;;;;;7.05;79.30;102848.69;5018679;28;20194;-73
2022/03/27 02:00:14;;;;;;;49.33;19.20;;;;;;;7.06;79.28;102845.31;5018220;28;20560;-75
2022/03/27 02:02:40;;;;;;;31.80;18.23;;;;;;;7.00;79.15;102844.06;5018178;28;20167;-74
2022/03/27 02:05:06;;;;;;;37.47;18.17;;;;;;;6.72;79.53;102847.59;5018829;28;20443;-73
2022/03/27 02:07:36;;;;;;;35.43;18.80;;;;;;;7.01;78.88;102845.81;5018443;28;20457;-76
2022/03/27 02:10:03;;;;;;;38.53;20.97;;;;;;;7.44;78.08;102842.22;5018698;28;20517;-76
2022/03/27 02:12:28;;;;;;;40.37;20.33;;;;;;;7.24;77.88;102847.19;5018806;28;20422;-76
2022/03/27 02:14:56;;;;;;;34.33;18.60;;;;;;;7.05;78.50;102847.81;5018426;28;20452;-75
2022/03/27 02:17:21;;;;;;;31.83;18.43;;;;;;;7.13;78.35;102846.56;5033864;28;20555;-75
2022/03/27 02:19:46;;;;;;;31.90;17.53;;;;;;;7.22;77.85;102846.19;5021513;28;20414;-75
2022/03/27 02:22:12;;;;;;;43.33;19.37;;;;;;;7.04;77.68;102854.69;5022729;28;20187;-75
2022/03/27 02:24:37;;;;;;;31.33;17.97;;;;;;;7.50;77.26;102843.44;5018293;28;20426;-74
2022/03/27 02:27:04;;;;;;;42.27;18.70;;;;;;;6.62;78.54;102848.75;5018395;28;20274;-77
2022/03/27 02:29:29;;;;;;;35.80;18.40;;;;;;;6.90;78.90;102848.69;5018007;28;20259;-76
2022/03/27 02:31:55;;;;;;;36.63;17.43;;;;;;;6.95;77.93;102851.56;5021572;28;20671;-76
2022/03/27 02:34:20;;;;;;;50.40;19.73;;;;;;;6.73;79.19;102859.78;5021466;28;20244;-76
2022/03/27 02:36:45;;;;;;;43.20;18.30;;;;;;;6.70;79.52;102860.47;5021723;28;20178;-76
2022/03/27 02:39:11;;;;;;;55.53;20.00;;;;;;;6.67;78.97;102852.53;5021295;28;20524;-75
2022/03/27 02:41:36;;;;;;;36.13;20.03;;;;;;;6.81;78.75;102847.28;5021765;28;20496;-76
2022/03/27 02:44:01;;;;;;;33.37;18.93;;;;;;;7.00;78.52;102834.56;5021571;28;20183;-75
2022/03/27 02:46:27;;;;;;;38.27;18.47;;;;;;;6.81;78.73;102844.69;5022124;28;20214;-76
2022/03/27 02:48:52;;;;;;;32.10;18.70;;;;;;;6.87;78.70;102851.13;5021499;28;20185;-75
2022/03/27 02:51:17;;;;;;;28.50;18.67;;;;;;;7.10;77.60;102842.88;5021240;28;20563;-75
2022/03/27 02:53:43;;;;;;;36.87;18.93;;;;;;;7.11;77.46;102850.75;5021997;28;20176;-75
2022/03/27 02:56:08;;;;;;;25.70;17.60;;;;;;;7.21;76.91;102849.56;5021442;28;20528;-74
2022/03/27 02:58:34;;;;;;;28.87;19.47;;;;;;;7.10;77.69;102851.56;5021317;28;20249;-75
2022/03/27 03:01:00;;;;;;;29.50;17.30;;;;;;;7.06;77.94;102844.41;5021703;28;20241;-75
2022/03/27 03:03:25;;;;;;;36.23;18.80;;;;;;;6.76;77.76;102848.69;5021374;28;20179;-75
2022/03/27 03:05:51;;;;;;;25.63;17.80;;;;;;;6.84;78.71;102847.44;5021094;28;20210;-75
2022/03/27 03:08:17;;;;;;;41.20;18.37;;;;;;;7.00;78.09;102847.53;5021575;28;20258;-75
2022/03/27 03:10:43;;;;;;;24.57;16.87;;;;;;;6.86;78.70;102835.44;5020870;28;20416;-75
2022/03/27 03:13:09;;;;;;;33.23;17.93;;;;;;;6.99;78.69;102839.66;5020836;28;20901;-76
2022/03/27 03:15:42;;;;;;;25.10;17.70;;;;;;;6.96;78.38;102848.16;5021446;28;20524;-76
2022/03/27 03:18:11;;;;;;;26.93;18.27;;;;;;;6.92;78.11;102835.81;5020955;28;20258;-76
2022/03/27 03:20:38;;;;;;;34.87;18.37;;;;;;;6.79;78.93;102843.69;5020699;28;20683;-76
2022/03/27 03:23:03;;;;;;;36.70;19.03;;;;;;;6.68;79.58;102838.75;5020985;28;20414;-76
2022/03/27 03:25:29;;;;;;;36.17;21.07;;;;;;;6.54;79.98;102837.03;5020997;28;20572;-75
2022/03/27 03:27:55;;;;;;;30.87;18.73;;;;;;;6.22;81.14;102839.47;5021474;28;20167;-75
2022/03/27 03:30:20;;;;;;;30.80;17.90;;;;;;;6.42;80.78;102831.13;5020965;28;20179;-74
2022/03/27 03:32:46;;;;;;;49.77;20.23;;;;;;;6.14;81.10;102829.44;5021258;28;20202;-75
2022/03/27 03:35:11;;;;;;;73.00;20.70;;;;;;;6.15;81.70;102828.63;5021835;28;20182;-75
2022/03/27 03:37:37;;;;;;;31.57;17.60;;;;;;;6.53;80.86;102815.41;5021192;28;20206;-76
2022/03/27 03:40:06;;;;;;;34.53;18.60;;;;;;;6.45;80.46;102806.28;5020976;28;20445;-75
2022/03/27 03:42:32;;;;;;;35.37;18.80;;;;;;;6.61;80.10;102809.81;5021248;28;20210;-75
2022/03/27 03:44:57;;;;;;;25.90;18.80;;;;;;;6.68;80.23;102799.88;5021115;28;20696;-75
2022/03/27 03:47:23;;;;;;;39.70;19.80;;;;;;;6.36;80.22;102793.69;5020891;28;20381;-75
2022/03/27 03:49:48;;;;;;;39.57;18.00;;;;;;;5.89;81.20;102807.19;5021458;28;20175;-75
2022/03/27 03:52:13;;;;;;;82.00;18.50;;;;;;;6.02;82.15;102807.19;5020881;28;20167;-75
2022/03/27 03:54:38;;;;;;;70.60;19.20;;;;;;;6.01;82.20;102807.09;5020967;28;20597;-75
2022/03/27 03:57:05;;;;;;;50.97;18.30;;;;;;;6.32;81.15;102807.25;5021536;28;20225;-76
2022/03/27 03:59:33;;;;;;;36.80;15.90;;;;;;;6.13;81.16;102812.09;5020841;28;20171;-76
2022/03/27 04:01:59;;;;;;;39.37;16.30;;;;;;;6.01;81.46;102817.44;5020544;28;20797;-76
2022/03/27 04:04:24;;;;;;;44.20;17.57;;;;;;;5.50;82.00;102819.41;5020397;28;20402;-75
2022/03/27 04:06:50;;;;;;;51.87;17.13;;;;;;;5.53;82.09;102815.31;5020673;28;20909;-76
2022/03/27 04:09:15;;;;;;;74.50;17.77;;;;;;;5.67;81.15;102812.69;5021024;28;20524;-75
2022/03/27 04:11:40;;;;;;;34.97;16.10;;;;;;;5.66;81.28;102809.22;5020714;28;20167;-75
2022/03/27 04:14:06;;;;;;;64.43;16.73;;;;;;;5.64;81.23;102821.19;5019786;28;20191;-76
2022/03/27 04:16:31;;;;;;;33.43;16.03;;;;;;;5.94;80.20;102825.56;5020747;28;20175;-75
2022/03/27 04:18:56;;;;;;;46.07;14.80;;;;;;;6.01;79.97;102822.63;5020883;28;20181;-75
2022/03/27 04:21:22;;;;;;;32.00;14.33;;;;;;;6.15;80.14;102826.06;5020100;28;20461;-75
2022/03/27 04:23:47;;;;;;;28.77;15.47;;;;;;;5.83;80.13;102837.84;5019763;28;20258;-75
2022/03/27 04:26:12;;;;;;;53.07;17.00;;;;;;;5.85;79.47;102838.84;5020810;28;20250;-74
2022/03/27 04:28:38;;;;;;;31.17;16.70;;;;;;;5.77;80.60;102834.88;5020427;28;20221;-75
2022/03/27 04:31:03;;;;;;;20.90;14.70;;;;;;;5.87;80.65;102837.25;5020256;28;20226;-76
2022/03/27 04:33:28;;;;;;;31.23;13.27;;;;;;;5.72;79.48;102832.91;5020469;28;20584;-75
2022/03/27 04:35:54;;;;;;;22.13;13.20;;;;;;;5.73;79.31;102841.56;5035877;28;20583;-75
2022/03/27 04:38:19;;;;;;;17.23;11.87;;;;;;;5.92;79.28;102840.13;5020231;28;20274;-75
2022/03/27 04:40:44;;;;;;;18.10;11.93;;;;;;;5.86;79.57;102841.53;5019741;28;20257;-75
2022/03/27 04:43:12;;;;;;;17.10;12.53;;;;;;;5.96;78.92;102845.59;5019840;28;20203;-75
2022/03/27 04:45:37;;;;;;;22.77;12.80;;;;;;;5.79;79.35;102844.53;5020571;28;20877;-76
2022/03/27 04:48:03;;;;;;;25.10;12.20;;;;;;;5.68;78.79;102841.28;5019811;28;20509;-76
2022/03/27 04:50:28;;;;;;;16.90;12.47;;;;;;;5.73;78.88;102842.44;5019192;28;20229;-76
2022/03/27 04:52:53;;;;;;;33.30;13.20;;;;;;;5.50;79.59;102848.72;5019586;28;20442;-75
2022/03/27 04:55:19;;;;;;;52.70;14.67;;;;;;;5.42;79.61;102843.88;5019572;28;20536;-73
2022/03/27 04:57:44;;;;;;;38.90;15.53;;;;;;;5.31;79.11;102841.47;5019267;28;20233;-75
2022/03/27 05:00:17;;;;;;;23.50;12.43;;;;;;;5.59;79.20;102848.44;5019986;28;20257;-75
2022/03/27 05:02:43;;;;;;;36.20;12.87;;;;;;;5.34;79.60;102844.25;5019436;28;20167;-75
2022/03/27 05:05:10;;;;;;;29.40;14.23;;;;;;;5.32;80.18;102845.84;5019047;28;20421;-75
2022/03/27 05:07:36;;;;;;;16.23;12.00;;;;;;;5.55;79.99;102841.28;5019390;28;20674;-76
2022/03/27 05:10:03;;;;;;;21.87;12.93;;;;;;;5.56;79.11;102843.06;5019451;28;20422;-75
2022/03/27 05:12:28;;;;;;;30.33;12.40;;;;;;;5.53;80.04;102843.78;5019322;28;20418;-77
2022/03/27 05:14:54;;;;;;;21.07;12.50;;;;;;;5.85;78.70;102851.78;5019086;28;20831;-75
2022/03/27 05:17:19;;;;;;;19.07;13.00;;;;;;;5.53;79.58;102859.31;5018658;28;20174;-77
2022/03/27 05:19:44;;;;;;;18.20;13.13;;;;;;;5.84;78.54;102863.81;5020668;28;20175;-75
2022/03/27 05:22:09;;;;;;;20.50;13.47;;;;;;;5.76;78.62;102856.38;5026383;28;20179;-75
2022/03/27 05:24:35;;;;;;;18.40;13.50;;;;;;;5.87;78.65;102856.28;5025352;28;20474;-75
2022/03/27 05:27:00;;;;;;;24.47;12.10;;;;;;;5.45;78.86;102859.59;5020202;28;20190;-74
2022/03/27 05:29:25;;;;;;;27.83;12.90;;;;;;;5.79;79.66;102859.16;5019107;28;20186;-74
2022/03/27 05:31:53;;;;;;;81.63;15.07;;;;;;;5.17;79.81;102868.16;5018756;28;20569;-75
2022/03/27 05:34:19;;;;;;;20.50;12.50;;;;;;;5.57;79.27;102865.53;5018486;28;20225;-76
2022/03/27 05:36:45;;;;;;;16.30;12.67;;;;;;;5.74;79.30;102862.34;5019025;28;20429;-76
2022/03/27 05:39:11;;;;;;;28.30;14.67;;;;;;;5.70;79.25;102856.91;5019377;28;20179;-76
2022/03/27 05:41:37;;;;;;;45.03;14.00;;;;;;;5.28;79.42;102867.16;5018864;28;20524;-75
2022/03/27 05:44:02;;;;;;;21.50;13.03;;;;;;;5.55;79.92;102873.22;5018819;28;20167;-76
2022/03/27 05:46:27;;;;;;;71.17;15.50;;;;;;;5.36;80.48;102868.53;5019518;28;20226;-75
2022/03/27 05:48:52;;;;;;;41.17;13.37;;;;;;;5.40;80.78;102869.66;5019014;28;20175;-75
2022/03/27 05:51:18;;;;;;;23.43;11.17;;;;;;;5.69;79.41;102870.63;5018668;28;20178;-75
2022/03/27 05:53:43;;;;;;;14.03;11.70;;;;;;;5.95;78.51;102867.09;5019447;28;20182;-75
2022/03/27 05:56:09;;;;;;;16.60;11.83;;;;;;;5.62;79.17;102861.56;5018805;28;20241;-74
2022/03/27 05:58:35;;;;;;;24.47;12.10;;;;;;;5.63;78.66;102855.59;5018699;28;20178;-74
2022/03/27 06:01:00;;;;;;;19.27;11.43;;;;;;;5.66;78.79;102849.72;5018943;28;20193;-73
2022/03/27 06:03:26;;;;;;;21.43;11.67;;;;;;;5.63;78.60;102853.03;5018630;28;20441;-74
2022/03/27 06:05:51;;;;;;;29.93;11.33;;;;;;;5.66;78.60;102845.44;5022565;28;20272;-73
2022/03/27 06:08:17;;;;;;;18.73;12.20;;;;;;;6.03;77.59;102854.66;5023222;28;20202;-75
2022/03/27 06:10:42;;;;;;;13.30;11.30;;;;;;;6.29;76.97;102848.53;5022369;28;20189;-75
2022/03/27 06:13:10;;;;;;;13.60;11.30;;;;;;;5.88;77.27;102845.09;5022425;28;20282;-75
2022/03/27 06:15:35;;;;;;;15.27;12.03;;;;;;;5.84;77.49;102853.47;5022295;28;20163;-75
2022/03/27 06:18:00;;;;;;;21.30;11.23;;;;;;;6.17;76.44;102851.25;5022947;28;20476;-74
2022/03/27 06:20:28;;;;;;;20.00;10.67;;;;;;;6.76;74.86;102848.69;5014178;28;20179;-74
2022/03/27 06:22:54;;;;;;;13.63;10.27;;;;;;;6.94;74.12;102838.50;5018801;28;20186;-72
2022/03/27 06:25:22;;;;;;;12.40;9.63;;;;;;;6.98;73.43;102851.75;5022387;28;20456;-76
2022/03/27 06:27:50;;;;;;;11.77;10.03;;;;;;;7.16;72.93;102856.22;5022375;28;20428;-75
2022/03/27 06:30:17;;;;;;;12.50;9.77;;;;;;;6.94;73.84;102862.75;5022472;28;20421;-75
2022/03/27 06:32:44;;;;;;;11.50;9.80;;;;;;;6.83;73.94;102871.56;5021586;28;20463;-75
2022/03/27 06:35:11;;;;;;;12.30;8.80;;;;;;;7.07;73.18;102867.81;5022067;28;20433;-74
2022/03/27 06:37:37;;;;;;;14.00;9.70;;;;;;;7.01;73.47;102862.28;5022493;28;20682;-74
2022/03/27 06:40:03;;;;;;;11.40;9.33;;;;;;;6.80;74.08;102868.81;5022050;28;20453;-71
2022/03/27 06:42:29;;;;;;;13.17;9.40;;;;;;;6.70;74.03;102870.84;5020978;28;20425;-74
2022/03/27 06:44:55;;;;;;;20.67;10.80;;;;;;;6.23;75.15;102879.22;5022826;28;20414;-73
2022/03/27 06:47:22;;;;;;;12.17;10.10;;;;;;;6.29;75.17;102876.09;5025964;28;20432;-76
2022/03/27 06:49:48;;;;;;;11.33;10.23;;;;;;;6.36;75.58;102874.00;5032800;28;20504;-75
2022/03/27 06:52:14;;;;;;;25.00;10.73;;;;;;;7.59;77.02;102863.84;5029395;28;20676;-65
2022/03/27 06:54:39;;;;;;;22.63;10.33;;;;;;;9.87;67.73;102860.75;5021348;28;20421;-64
2022/03/27 06:57:05;;;;;;;15.03;8.40;;;;;;;8.94;69.68;102864.09;5032567;28;20525;-66
2022/03/27 07:03:01;;;;;;;26.60;9.20;;;;;;;8.61;67.30;102858.94;5037575;28;20210;-75
2022/03/27 07:05:00;;;;;;;41.57;9.20;;;;;;;6.38;73.21;102890.50;5034069;28;20845;-75
2022/03/27 07:07:25;;;;;;;18.77;8.63;;;;;;;6.30;74.56;102896.03;5021010;28;20434;-76
2022/03/27 07:09:50;;;;;;;27.70;10.10;;;;;;;6.52;74.48;102898.22;5021471;28;20190;-75
2022/03/27 07:12:16;;;;;;;15.40;9.03;;;;;;;6.52;74.49;102900.81;5012236;28;20180;-77
2022/03/27 07:14:41;;;;;;;12.00;9.37;;;;;;;7.17;73.44;102899.50;5003218;28;20233;-78
2022/03/27 07:17:06;;;;;;;17.70;9.90;;;;;;;7.05;72.56;102897.09;5001081;28;20179;-76
2022/03/27 07:19:33;;;;;;;12.03;10.33;;;;;;;6.69;74.21;102901.88;5003608;28;20534;-77
2022/03/27 07:21:58;;;;;;;12.70;9.70;;;;;;;7.00;73.59;102912.38;5023855;28;20185;-76
2022/03/27 07:24:24;;;;;;;15.10;9.93;;;;;;;7.05;73.57;102910.94;5021527;28;20413;-74
2022/03/27 07:26:50;;;;;;;17.73;10.90;;;;;;;6.96;73.50;102913.00;5015304;28;20625;-75
2022/03/27 07:29:15;;;;;;;19.70;12.03;;;;;;;7.52;72.84;102924.00;5001765;28;20427;-77
2022/03/27 07:31:42;;;;;;;18.63;11.33;;;;;;;7.69;71.90;102918.06;5001661;28;20230;-75
2022/03/27 07:34:07;;;;;;;22.97;12.07;;;;;;;6.82;73.20;102922.53;5012085;28;20261;-75
2022/03/27 07:36:34;;;;;;;19.23;10.27;;;;;;;7.68;72.33;102920.56;5017214;28;20446;-74
2022/03/27 07:39:00;;;;;;;22.50;9.90;;;;;;;7.19;73.43;102923.84;5020162;28;20179;-74
2022/03/27 07:41:25;;;;;;;17.77;10.10;;;;;;;6.74;73.98;102913.41;5019683;28;20430;-73
2022/03/27 07:43:50;;;;;;;20.23;10.60;;;;;;;6.96;74.21;102906.91;5019422;28;20218;-74
2022/03/27 07:46:16;;;;;;;16.00;10.33;;;;;;;7.20;72.86;102905.75;5020417;28;20209;-73
2022/03/27 07:48:41;;;;;;;20.87;9.50;;;;;;;7.34;72.56;102903.06;5020088;28;20182;-75
2022/03/27 07:51:08;;;;;;;19.33;9.93;;;;;;;7.40;72.31;102899.13;5010738;28;20245;-72
2022/03/27 07:53:33;;;;;;;24.27;11.07;;;;;;;7.69;72.10;102896.41;5012837;28;20178;-78
2022/03/27 07:55:58;;;;;;;16.73;10.10;;;;;;;7.55;71.61;102888.75;5019563;28;20710;-73
2022/03/27 07:58:24;;;;;;;19.73;10.43;;;;;;;8.29;69.91;102881.50;5019924;28;20174;-74
2022/03/27 08:00:49;;;;;;;21.63;11.10;;;;;;;8.00;69.27;102886.03;5020194;28;20512;-75
2022/03/27 08:03:15;;;;;;;18.23;11.53;;;;;;;7.69;72.00;102888.63;5019876;28;20179;-76
2022/03/27 08:05:42;;;;;;;23.17;11.97;;;;;;;7.81;71.43;102881.50;5019118;28;20232;-77
2022/03/27 08:08:07;;;;;;;17.47;11.50;;;;;;;8.10;70.65;102884.81;5019169;28;20183;-77
2022/03/27 08:10:33;;;;;;;18.90;11.83;;;;;;;8.27;69.81;102876.22;5018472;28;20432;-77
2022/03/27 08:12:59;;;;;;;15.93;13.23;;;;;;;8.38;69.54;102881.09;5019472;28;20179;-76
2022/03/27 08:15:24;;;;;;;19.67;12.90;;;;;;;8.62;69.31;102872.84;5019515;28;20178;-76
2022/03/27 08:17:53;;;;;;;14.63;11.40;;;;;;;8.33;69.89;102870.44;5024501;28;20688;-76
2022/03/27 08:20:21;;;;;;;16.73;11.70;;;;;;;8.22;69.91;102882.00;5022183;28;20555;-76
2022/03/27 08:22:46;;;;;;;17.53;11.63;;;;;;;8.03;69.93;102880.97;5020826;28;20500;-74
2022/03/27 08:26:55;;;;;;;15.57;10.80;;;;;;;8.13;69.67;102884.09;5020050;28;20417;-75
2022/03/27 08:27:57;;;;;;;19.40;11.70;;;;;;;8.39;70.22;102881.19;5019392;28;20167;-76
2022/03/27 08:30:22;;;;;;;19.37;12.10;;;;;;;8.84;68.17;102882.66;5019898;28;20467;-75
2022/03/27 08:32:48;;;;;;;15.27;10.57;;;;;;;9.02;68.04;102890.50;5019973;28;20181;-75
2022/03/27 08:35:13;;;;;;;21.07;11.10;;;;;;;9.44;67.45;102883.03;5019406;28;20528;-74
2022/03/27 08:37:40;;;;;;;14.83;9.37;;;;;;;9.27;66.88;102883.09;5019812;28;20266;-73
2022/03/27 08:40:05;;;;;;;15.83;11.17;;;;;;;10.14;64.93;102884.59;5019462;28;20175;-73
2022/03/27 08:42:31;;;;;;;13.37;10.60;;;;;;;8.97;66.39;102887.69;5019766;28;20422;-72
2022/03/27 08:44:57;;;;;;;16.50;10.47;;;;;;;9.54;66.19;102889.56;5018725;28;20232;-72
2022/03/27 08:47:24;;;;;;;22.10;11.57;;;;;;;9.94;65.09;102881.06;5019470;28;20520;-75
2022/03/27 08:50:26;;;;;;;18.43;10.40;;;;;;;9.97;64.62;102881.19;5019448;28;20195;-75
2022/03/27 08:52:55;;;;;;;15.00;9.93;;;;;;;10.38;63.32;102874.41;4998547;28;20432;-75
2022/03/27 08:55:39;;;;;;;15.30;9.20;;;;;;;11.34;61.58;102868.06;5024409;28;20747;-74
2022/03/27 08:58:07;;;;;;;17.03;10.37;;;;;;;10.68;63.02;102868.78;5039050;28;20492;-76
2022/03/27 09:00:36;;;;;;;16.87;10.27;;;;;;;10.68;62.00;102875.72;5038219;28;20420;-77
2022/03/27 09:03:03;;;;;;;17.27;10.90;;;;;;;11.23;61.89;102870.22;5038854;28;20417;-76
2022/03/27 09:05:29;;;;;;;12.63;7.97;;;;;;;11.42;61.76;102876.19;5038654;28;20906;-74
2022/03/27 09:07:56;;;;;;;15.40;10.10;;;;;;;11.26;61.53;102882.53;5039038;28;20409;-76
2022/03/27 09:10:23;;;;;;;20.40;10.13;;;;;;;11.72;59.81;102873.03;5038657;28;20237;-75
2022/03/27 09:12:50;;;;;;;14.30;10.03;;;;;;;12.61;58.42;102872.84;5037994;28;20413;-74
2022/03/27 09:15:19;;;;;;;15.30;9.80;;;;;;;11.72;59.76;102881.75;5020073;28;20465;-75
2022/03/27 09:18:08;;;;;;;14.77;10.60;;;;;;;12.02;58.77;102882.94;5018671;28;20425;-75
2022/03/27 09:20:38;;;;;;;14.20;10.07;;;;;;;11.71;59.76;102879.97;5017983;28;20435;-76
2022/03/27 09:23:14;;;;;;;19.10;10.70;;;;;;;12.55;57.28;102875.28;5018601;28;20483;-72
2022/03/27 09:25:53;;;;;;;15.60;7.90;;;;;;;13.47;55.12;102869.69;5018559;28;20436;-75
2022/03/27 09:28:41;;;;;;;18.33;12.93;;;;;;;13.57;54.59;102865.59;5018793;28;20841;-74
2022/03/27 09:31:18;;;;;;;23.73;16.60;;;;;;;13.38;55.61;102862.44;5018700;28;20499;-77
2022/03/27 09:34:00;;;;;;;24.47;15.53;;;;;;;13.27;55.56;102851.56;5018584;28;20457;-75
2022/03/27 09:36:42;;;;;;;18.03;13.20;;;;;;;13.52;55.28;102848.84;5018768;28;20388;-75
2022/03/27 09:39:15;;;;;;;14.07;10.67;;;;;;;14.66;51.84;102852.19;5018562;28;20418;-76
2022/03/27 09:41:58;;;;;;;18.07;9.40;;;;;;;13.93;54.31;102851.84;5018063;28;20866;-79
2022/03/27 09:44:30;;;;;;;13.53;9.37;;;;;;;14.45;52.32;102840.22;5018411;28;20411;-76
2022/03/27 09:47:00;;;;;;;17.47;9.73;;;;;;;14.94;50.96;102845.03;5018374;28;20443;-76
2022/03/27 09:49:35;;;;;;;20.13;11.00;;;;;;;14.26;52.29;102841.47;5017566;28;20449;-75
2022/03/27 09:52:13;;;;;;;19.10;10.90;;;;;;;15.52;49.96;102835.03;5018404;28;20399;-76
2022/03/27 09:54:46;;;;;;;17.77;9.87;;;;;;;13.85;53.46;102845.50;5018457;28;20421;-76
2022/03/27 09:57:31;;;;;;;20.27;10.50;;;;;;;14.94;51.77;102837.16;4998796;28;20804;-76
2022/03/27 10:00:08;;;;;;;13.20;9.93;;;;;;;14.26;52.70;102833.59;4998554;28;20526;-75
2022/03/27 10:02:33;;;;;;;18.30;9.77;;;;;;;14.17;53.91;102837.66;4997633;28;20436;-75
2022/03/27 10:05:07;;;;;;;15.17;10.00;;;;;;;13.64;54.88;102842.25;4998340;28;20509;-74
2022/03/27 10:07:43;;;;;;;17.83;10.47;;;;;;;13.85;54.72;102840.25;4998532;28;20187;-76
2022/03/27 10:10:14;;;;;;;17.33;9.60;;;;;;;14.93;52.52;102838.00;4998478;28;20424;-73
2022/03/27 10:12:42;;;;;;;13.50;9.97;;;;;;;15.40;50.75;102822.50;4998423;28;20832;-74
2022/03/27 10:15:11;;;;;;;19.60;11.00;;;;;;;15.17;52.25;102821.94;5017585;28;20412;-75
2022/03/27 10:17:38;;;;;;;16.50;10.40;;;;;;;15.22;51.15;102820.34;5018376;28;20749;-77
2022/03/27 10:20:09;;;;;;;17.87;11.70;;;;;;;15.25;51.36;102820.41;5018664;28;20410;-78
2022/03/27 10:22:41;;;;;;;18.33;11.43;;;;;;;14.92;52.64;102818.69;5018089;28;20426;-75
2022/03/27 10:25:11;;;;;;;15.93;10.90;;;;;;;16.63;48.41;102813.59;5018178;28;20675;-76
2022/03/27 10:27:39;;;;;;;22.03;11.97;;;;;;;16.40;48.88;102805.31;5017916;28;20420;-76
2022/03/27 10:30:06;;;;;;;16.63;10.90;;;;;;;17.43;47.20;102806.13;5017992;28;20476;-76
2022/03/27 10:32:31;;;;;;;20.07;11.50;;;;;;;17.86;45.61;102805.81;5017919;28;20770;-76
2022/03/27 10:35:34;;;;;;;17.30;11.10;;;;;;;17.70;44.89;102804.72;5017449;28;20392;-76
2022/03/27 10:38:06;;;;;;;17.47;11.30;;;;;;;17.46;46.62;102805.28;5018174;28;20174;-77
2022/03/27 10:40:38;;;;;;;15.97;11.33;;;;;;;16.54;48.28;102804.66;5017934;28;20417;-74
2022/03/27 10:43:18;;;;;;;17.57;11.50;;;;;;;17.08;47.54;102801.22;5017417;28;20426;-79
2022/03/27 10:45:44;;;;;;;14.80;10.10;;;;;;;16.57;48.25;102808.22;5018094;28;20471;-76
2022/03/27 10:48:16;;;;;;;15.57;10.90;;;;;;;16.92;47.61;102812.38;5017188;28;20429;-76
2022/03/27 10:50:53;;;;;;;18.73;11.40;;;;;;;17.53;46.08;102803.63;5018090;28;20217;-77
2022/03/27 10:53:21;;;;;;;16.20;10.77;;;;;;;16.43;49.38;102802.72;5021822;28;20733;-77
2022/03/27 10:55:49;;;;;;;16.67;10.73;;;;;;;16.72;48.04;102812.00;5030223;28;20499;-78
2022/03/27 10:58:35;;;;;;;20.63;11.53;;;;;;;17.20;47.18;102808.44;5041637;28;20421;-78
2022/03/27 11:01:09;;;;;;;16.13;10.27;;;;;;;16.33;49.27;102808.66;5041423;28;20383;-76
2022/03/27 11:04:04;;;;;;;16.13;10.43;;;;;;;16.86;47.86;102812.22;5040534;28;20423;-77
2022/03/27 11:06:31;;;;;;;16.70;10.30;;;;;;;17.97;45.82;102803.34;5041247;28;20474;-78
2022/03/27 11:09:04;;;;;;;15.57;10.60;;;;;;;16.10;49.61;102801.22;5041150;28;20421;-76
2022/03/27 11:11:36;;;;;;;14.87;10.27;;;;;;;16.35;48.92;102799.06;5023693;28;20682;-76
2022/03/27 11:14:12;;;;;;;14.97;10.80;;;;;;;17.37;47.17;102790.19;5041812;28;20795;-75
2022/03/27 11:17:06;;;;;;;18.13;12.40;;;;;;;16.43;49.16;102792.19;5040972;28;20432;-76
2022/03/27 11:19:44;;;;;;;15.10;11.93;;;;;;;16.14;49.26;102803.06;5041061;28;20423;-75
2022/03/27 11:22:51;;;;;;;16.97;11.60;;;;;;;16.31;49.91;102792.84;5040557;28;20814;-74
2022/03/27 11:25:24;;;;;;;16.80;11.20;;;;;;;16.64;48.28;102789.06;5040713;28;20439;-75